Terminal Aerodrome Forecast
Issued by NWS

Current Version | Previous Version | Text Only | Print | Product List | Glossary Off
Versions: 1 2 3 4 5 6 7 8 9 10 11 12 13

000
FTUS41 KILN 211733 AAB
TAFLCK
TAF AMD
KLCK 211733Z 2118/2218 33005KT P6SM SCT025
     FM212100 31008KT P6SM BKN200
     FM212300 32009KT P6SM BKN060 OVC120
     FM220400 34013KT P6SM SCT250
     FM221500 02010KT P6SM FEW250=

USA.gov is the U.S. government's official web portal to all federal, state and local government web resources and services.